Time,TemperatureF,DewpointF,PressureIn,WindDirection,WindDirectionDegrees,WindSpeedMPH,WindSpeedGustMPH,Humidity,HourlyPrecipIn,Conditions,Clouds,dailyrainin,SoftwareType,DateUTC
2013-06-12 00:02:00,81.7,61.8,29.63,SSW,192,8.1,17.3,51,0.00,RA,,0.00,WeatherDisplay:10.37,2013-06-12 05:02:00,
2013-06-12 00:07:00,81.5,61.6,29.63,South,175,15.7,27.6,51,0.00,RA,,0.00,WeatherDisplay:10.37,2013-06-12 05:07:00,
2013-06-12 00:12:00,81.5,62.2,29.62,SW,218,12.3,20.7,52,0.00,CLR,,0.00,WeatherDisplay:10.37,2013-06-12 05:12:00,
2013-06-12 00:17:00,81.4,62.1,29.63,SW,218,11.0,28.8,52,0.00,CLR,,0.00,WeatherDisplay:10.37,2013-06-12 05:17:00,
2013-06-12 00:22:00,81.4,61.5,29.65,SSW,205,26.6,31.1,51,0.00,CLR,,0.00,WeatherDisplay:10.37,2013-06-12 05:22:00,
2013-06-12 00:27:00,81.7,62.4,29.65,SSW,198,12.0,16.1,52,0.00,CLR,,0.00,WeatherDisplay:10.37,2013-06-12 05:27:00,
2013-06-12 00:32:00,81.6,62.3,29.65,SSW,199,11.7,24.2,52,0.00,CLR,,0.00,WeatherDisplay:10.37,2013-06-12 05:32:00,
2013-06-12 00:37:00,81.5,61.6,29.65,SW,216,12.8,20.7,51,0.00,CLR,,0.00,WeatherDisplay:10.37,2013-06-12 05:37:00,
2013-06-12 00:42:00,81.9,61.4,29.65,SSW,203,12.4,18.4,50,0.00,CLR,,0.00,WeatherDisplay:10.37,2013-06-12 05:42:00,
2013-06-12 00:47:00,82.3,61.2,29.64,SSW,196,15.4,23.3,49,0.00,CLR,,0.00,WeatherDisplay:10.37,2013-06-12 05:47:00,
2013-06-12 00:52:00,82.5,60.8,29.65,SW,219,17.8,28.8,48,0.00,CLR,,0.00,WeatherDisplay:10.37,2013-06-12 05:52:00,
2013-06-12 00:57:00,82.7,61.6,29.65,SSW,198,7.0,14.9,49,0.00,CLR,,0.00,WeatherDisplay:10.37,2013-06-12 05:57:00,
2013-06-12 01:02:00,82.3,61.2,29.66,SW,235,8.5,12.7,49,0.00,CLR,,0.00,WeatherDisplay:10.37,2013-06-12 06:02:00,
2013-06-12 01:07:00,82.0,61.5,29.66,SSW,192,8.7,13.8,50,0.00,CLR,,0.00,WeatherDisplay:10.37,2013-06-12 06:07:00,
2013-06-12 01:12:00,81.8,60.8,29.66,SSW,200,12.7,16.1,49,0.00,CLR,,0.00,WeatherDisplay:10.37,2013-06-12 06:12:00,
2013-06-12 01:17:00,81.4,61.5,29.66,SSW,207,7.6,12.7,51,0.00,CLR,,0.00,WeatherDisplay:10.37,2013-06-12 06:17:00,
2013-06-12 01:22:00,81.0,61.7,29.67,SSE,162,6.7,6.9,52,0.00,CLR,,0.00,WeatherDisplay:10.37,2013-06-12 06:22:00,
2013-06-12 01:27:00,80.7,61.4,29.67,SSW,200,6.8,11.5,52,0.00,CLR,,0.00,WeatherDisplay:10.37,2013-06-12 06:27:00,
2013-06-12 01:32:00,80.5,61.3,29.67,SSW,195,7.4,10.4,52,0.00,CLR,,0.00,WeatherDisplay:10.37,2013-06-12 06:32:00,
2013-06-12 01:37:00,80.5,60.7,29.66,SSW,205,5.7,12.7,51,0.00,CLR,,0.00,WeatherDisplay:10.37,2013-06-12 06:37:00,
2013-06-12 01:42:00,80.4,60.6,29.65,South,174,6.4,9.5,51,0.00,CLR,,0.00,WeatherDisplay:10.37,2013-06-12 06:42:00,
2013-06-12 01:47:00,80.2,60.4,29.65,SSW,209,9.5,12.7,51,0.00,CLR,,0.00,WeatherDisplay:10.37,2013-06-12 06:47:00,
2013-06-12 01:52:00,80.2,60.4,29.66,SSW,198,7.3,10.4,51,0.00,CLR,,0.00,WeatherDisplay:10.37,2013-06-12 06:52:00,
2013-06-12 01:57:00,80.3,60.5,29.66,South,191,9.9,17.3,51,0.00,CLR,,0.00,WeatherDisplay:10.37,2013-06-12 06:57:00,
2013-06-12 02:02:00,80.0,60.8,29.67,South,177,14.9,14.9,52,0.00,CLR,,0.00,WeatherDisplay:10.37,2013-06-12 07:02:00,
2013-06-12 02:07:00,79.8,60.6,29.65,SSW,207,8.2,9.2,52,0.00,CLR,,0.00,WeatherDisplay:10.37,2013-06-12 07:07:00,
2013-06-12 02:12:00,79.5,60.3,29.65,SSW,198,10.8,21.9,52,0.00,CLR,,0.00,WeatherDisplay:10.37,2013-06-12 07:12:00,
2013-06-12 02:17:00,79.2,60.6,29.66,SSW,194,10.1,14.4,53,0.00,CLR,,0.00,WeatherDisplay:10.37,2013-06-12 07:17:00,
2013-06-12 02:22:00,78.8,60.7,29.66,SSW,192,5.3,9.2,54,0.00,CLR,,0.00,WeatherDisplay:10.37,2013-06-12 07:22:00,
2013-06-12 02:27:00,78.5,61.0,29.66,SSW,197,7.1,10.4,55,0.00,CLR,,0.00,WeatherDisplay:10.37,2013-06-12 07:27:00,
2013-06-12 02:32:00,78.2,61.2,29.66,SSW,196,4.1,8.1,56,0.00,CLR,,0.00,WeatherDisplay:10.37,2013-06-12 07:32:00,
2013-06-12 02:37:00,78.0,61.0,29.66,SW,228,2.8,5.8,56,0.00,CLR,,0.00,WeatherDisplay:10.37,2013-06-12 07:37:00,
2013-06-12 02:42:00,77.7,60.8,29.67,SSW,213,3.3,8.1,56,0.00,CLR,,0.00,WeatherDisplay:10.37,2013-06-12 07:42:00,
2013-06-12 02:47:00,77.6,60.7,29.67,SSW,213,0.7,2.3,56,0.00,CLR,,0.00,WeatherDisplay:10.37,2013-06-12 07:47:00,
2013-06-12 02:53:00,77.6,60.7,29.68,SSW,213,1.0,2.3,56,0.00,CLR,,0.00,WeatherDisplay:10.37,2013-06-12 07:53:00,
2013-06-12 02:58:00,77.3,60.9,29.68,SSW,213,0.0,0.0,57,0.00,CLR,,0.00,WeatherDisplay:10.37,2013-06-12 07:58:00,
2013-06-12 03:03:00,77.0,60.6,29.68,SSW,213,0.0,0.0,57,0.00,CLR,,0.00,WeatherDisplay:10.37,2013-06-12 08:03:00,
2013-06-12 03:08:00,76.7,60.3,29.67,SSW,213,0.0,0.0,57,0.00,CLR,,0.00,WeatherDisplay:10.37,2013-06-12 08:08:00,
2013-06-12 03:13:00,76.3,60.9,29.67,SSW,213,0.0,0.0,59,0.00,CLR,,0.00,WeatherDisplay:10.37,2013-06-12 08:13:00,
2013-06-12 03:18:00,75.6,60.7,29.67,SSW,213,0.0,0.0,60,0.00,CLR,,0.00,WeatherDisplay:10.37,2013-06-12 08:18:00,
2013-06-12 03:23:00,74.7,60.4,29.67,SSW,213,0.0,0.0,61,0.00,CLR,,0.00,WeatherDisplay:10.37,2013-06-12 08:23:00,
2013-06-12 03:28:00,74.1,60.2,29.66,SSW,213,0.0,0.0,62,0.00,CLR,,0.00,WeatherDisplay:10.37,2013-06-12 08:28:00,
2013-06-12 03:33:00,73.5,60.6,29.67,SSW,213,0.0,0.0,64,0.00,CLR,,0.00,WeatherDisplay:10.37,2013-06-12 08:33:00,
2013-06-12 03:38:00,73.1,60.2,29.66,SSW,213,0.0,0.0,64,0.00,CLR,,0.00,WeatherDisplay:10.37,2013-06-12 08:38:00,
2013-06-12 03:43:00,72.9,60.4,29.66,SSW,213,0.0,1.2,65,0.00,CLR,,0.00,WeatherDisplay:10.37,2013-06-12 08:43:00,
2013-06-12 03:48:00,72.5,60.1,29.66,SSW,213,0.0,0.0,65,0.00,CLR,,0.00,WeatherDisplay:10.37,2013-06-12 08:48:00,
2013-06-12 03:53:00,72.1,60.1,29.66,SSW,213,0.0,0.0,66,0.00,CLR,,0.00,WeatherDisplay:10.37,2013-06-12 08:53:00,
2013-06-12 03:58:00,71.8,59.8,29.66,SSW,213,0.0,0.0,66,0.00,CLR,,0.00,WeatherDisplay:10.37,2013-06-12 08:58:00,
2013-06-12 04:03:00,71.6,60.1,29.66,SSW,213,0.2,1.2,67,0.00,CLR,,0.00,WeatherDisplay:10.37,2013-06-12 09:03:00,
2013-06-12 04:08:00,71.6,60.1,29.66,SSW,213,0.0,1.2,67,0.00,CLR,,0.00,WeatherDisplay:10.37,2013-06-12 09:08:00,
2013-06-12 04:13:00,71.6,60.1,29.67,SSW,213,0.0,0.0,67,0.00,CLR,,0.00,WeatherDisplay:10.37,2013-06-12 09:13:00,
2013-06-12 04:18:00,71.4,59.9,29.67,SSW,213,0.0,0.0,67,0.00,CLR,,0.00,WeatherDisplay:10.37,2013-06-12 09:18:00,
2013-06-12 04:23:00,71.2,59.7,29.66,SSW,213,0.9,1.2,67,0.00,CLR,,0.00,WeatherDisplay:10.37,2013-06-12 09:23:00,
2013-06-12 04:28:00,71.2,59.7,29.66,SSW,213,0.4,1.2,67,0.00,CLR,,0.00,WeatherDisplay:10.37,2013-06-12 09:28:00,
2013-06-12 04:33:00,71.2,60.1,29.67,SSW,213,0.0,0.0,68,0.00,CLR,,0.00,WeatherDisplay:10.37,2013-06-12 09:33:00,
2013-06-12 04:38:00,71.0,59.9,29.67,SSW,213,0.0,0.0,68,0.00,CLR,,0.00,WeatherDisplay:10.37,2013-06-12 09:38:00,
2013-06-12 04:43:00,70.6,59.9,29.67,SSW,213,3.8,4.6,69,0.00,CLR,,0.00,WeatherDisplay:10.37,2013-06-12 09:43:00,
2013-06-12 04:48:00,69.4,60.0,29.68,NNW,336,3.7,8.1,72,0.00,CLR,,0.00,WeatherDisplay:10.37,2013-06-12 09:48:00,
2013-06-12 04:53:00,69.0,60.0,29.68,NNW,336,2.0,4.6,73,0.00,CLR,,0.00,WeatherDisplay:10.37,2013-06-12 09:53:00,
2013-06-12 04:58:00,68.9,59.9,29.68,NNW,336,1.9,4.6,73,0.00,CLR,,0.00,WeatherDisplay:10.37,2013-06-12 09:58:00,
2013-06-12 05:03:00,69.0,60.0,29.68,NNW,336,4.3,4.6,73,0.00,CLR,,0.00,WeatherDisplay:10.37,2013-06-12 10:03:00,
2013-06-12 05:08:00,69.1,59.7,29.69,NNW,336,0.0,2.3,72,0.00,CLR,,0.00,WeatherDisplay:10.37,2013-06-12 10:08:00,
2013-06-12 05:13:00,69.1,60.1,29.69,NNW,336,0.2,1.2,73,0.00,CLR,,0.00,WeatherDisplay:10.37,2013-06-12 10:13:00,
2013-06-12 05:18:00,69.1,60.1,29.70,NNW,336,0.0,0.0,73,0.00,CLR,,0.00,WeatherDisplay:10.37,2013-06-12 10:18:00,
2013-06-12 05:23:00,69.1,60.1,29.70,NNW,336,0.1,1.2,73,0.00,CLR,,0.00,WeatherDisplay:10.37,2013-06-12 10:23:00,
2013-06-12 05:28:00,69.2,60.2,29.70,NNW,336,0.0,0.0,73,0.00,CLR,,0.00,WeatherDisplay:10.37,2013-06-12 10:28:00,
2013-06-12 05:33:00,69.1,60.1,29.70,NNW,336,0.0,0.0,73,0.00,CLR,,0.00,WeatherDisplay:10.37,2013-06-12 10:33:00,
2013-06-12 05:38:00,69.0,60.4,29.71,NNW,336,0.0,0.0,74,0.00,CLR,,0.00,WeatherDisplay:10.37,2013-06-12 10:38:00,
2013-06-12 05:43:00,68.7,60.1,29.71,NNW,336,0.0,0.0,74,0.00,CLR,,0.00,WeatherDisplay:10.37,2013-06-12 10:43:00,
2013-06-12 05:48:00,68.6,60.0,29.72,NNW,336,0.8,1.2,74,0.00,CLR,,0.00,WeatherDisplay:10.37,2013-06-12 10:48:00,
2013-06-12 05:53:00,68.4,59.8,29.71,NNW,336,0.9,2.3,74,0.00,CLR,,0.00,WeatherDisplay:10.37,2013-06-12 10:53:00,
2013-06-12 05:58:00,68.5,59.9,29.72,NNW,336,0.0,1.2,74,0.00,CLR,,0.00,WeatherDisplay:10.37,2013-06-12 10:58:00,
2013-06-12 06:03:00,68.5,59.9,29.72,NNW,336,0.1,1.2,74,0.00,CLR,,0.00,WeatherDisplay:10.37,2013-06-12 11:03:00,
2013-06-12 06:08:00,68.5,60.3,29.72,NNW,336,0.5,1.4,75,0.00,CLR,,0.00,WeatherDisplay:10.37,2013-06-12 11:08:00,
2013-06-12 06:13:00,68.4,60.2,29.72,NNW,336,0.0,1.2,75,0.00,CLR,,0.00,WeatherDisplay:10.37,2013-06-12 11:13:00,
2013-06-12 06:18:00,68.3,60.1,29.73,NNW,336,0.2,0.0,75,0.00,CLR,,0.00,WeatherDisplay:10.37,2013-06-12 11:18:00,
2013-06-12 06:23:00,68.2,60.0,29.74,NNW,336,1.4,2.7,75,0.00,CLR,,0.00,WeatherDisplay:10.37,2013-06-12 11:23:00,
2013-06-12 06:28:00,68.1,59.9,29.74,NNW,336,4.8,5.8,75,0.00,CLR,,0.00,WeatherDisplay:10.37,2013-06-12 11:28:00,
2013-06-12 06:33:00,67.2,59.4,29.75,WNW,288,11.6,14.9,76,0.00,CLR,,0.00,WeatherDisplay:10.37,2013-06-12 11:33:00,
2013-06-12 06:38:00,66.6,59.9,29.76,WNW,294,6.0,13.8,79,0.00,CLR,,0.00,WeatherDisplay:10.37,2013-06-12 11:38:00,
2013-06-12 06:43:00,66.4,60.4,29.76,NW,312,8.2,13.8,81,0.00,CLR,,0.00,WeatherDisplay:10.37,2013-06-12 11:43:00,
2013-06-12 06:48:00,66.6,60.9,29.77,NW,316,9.1,13.8,82,0.00,CLR,,0.00,WeatherDisplay:10.37,2013-06-12 11:48:00,
2013-06-12 06:53:00,66.9,61.2,29.77,NW,319,11.0,11.0,82,0.00,CLR,,0.00,WeatherDisplay:10.37,2013-06-12 11:53:00,
2013-06-12 06:58:00,67.2,61.5,29.77,NNW,331,10.6,10.6,82,0.00,CLR,,0.00,WeatherDisplay:10.37,2013-06-12 11:58:00,
2013-06-12 07:03:00,67.6,61.9,29.76,NNW,336,10.6,12.7,82,0.00,CLR,,0.00,WeatherDisplay:10.37,2013-06-12 12:03:00,
2013-06-12 07:08:00,68.1,62.0,29.76,NNW,335,5.0,9.2,81,0.00,CLR,,0.00,WeatherDisplay:10.37,2013-06-12 12:08:00,
2013-06-12 07:13:00,68.4,62.0,29.77,NNW,336,4.7,8.1,80,0.00,CLR,,0.00,WeatherDisplay:10.37,2013-06-12 12:13:00,
2013-06-12 07:18:00,68.6,62.2,29.77,NNW,332,5.1,8.1,80,0.00,CLR,,0.00,WeatherDisplay:10.37,2013-06-12 12:18:00,
2013-06-12 07:23:00,68.9,62.5,29.77,NNW,330,6.9,10.4,80,0.00,CLR,,0.00,WeatherDisplay:10.37,2013-06-12 12:23:00,
2013-06-12 07:28:00,69.6,63.2,29.78,NNW,336,16.2,18.4,80,0.00,CLR,,0.00,WeatherDisplay:10.37,2013-06-12 12:28:00,
2013-06-12 07:33:00,70.2,63.4,29.79,NW,314,15.0,15.0,79,0.00,CLR,,0.00,WeatherDisplay:10.37,2013-06-12 12:33:00,
2013-06-12 07:38:00,70.5,63.7,29.79,NNW,338,13.4,20.7,79,0.00,CLR,,0.00,WeatherDisplay:10.37,2013-06-12 12:38:00,
2013-06-12 07:43:00,70.8,64.0,29.79,North,349,17.0,18.4,79,0.00,CLR,,0.00,WeatherDisplay:10.37,2013-06-12 12:43:00,
2013-06-12 07:48:00,71.0,63.8,29.80,NW,313,15.9,18.4,78,0.00,CLR,,0.00,WeatherDisplay:10.37,2013-06-12 12:48:00,
2013-06-12 07:53:00,71.1,63.9,29.80,NW,324,24.0,25.7,78,0.00,CLR,,0.00,WeatherDisplay:10.37,2013-06-12 12:53:00,
2013-06-12 07:58:00,71.0,64.2,29.81,NNW,344,23.8,31.1,79,0.00,CLR,,0.00,WeatherDisplay:10.37,2013-06-12 12:58:00,
2013-06-12 08:04:00,71.1,64.3,29.81,NW,317,22.8,23.0,79,0.00,CLR,,0.00,WeatherDisplay:10.37,2013-06-12 13:04:00,
2013-06-12 08:09:00,70.9,64.1,29.81,NNW,333,25.2,28.8,79,0.00,CLR,,0.00,WeatherDisplay:10.37,2013-06-12 13:09:00,
2013-06-12 08:14:00,70.8,64.0,29.82,NNE,22,21.2,29.9,79,0.00,CLR,,0.00,WeatherDisplay:10.37,2013-06-12 13:14:00,
2013-06-12 08:19:00,70.8,63.2,29.82,North,355,14.7,29.9,77,0.00,CLR,,0.00,WeatherDisplay:10.37,2013-06-12 13:19:00,
2013-06-12 08:24:00,70.7,63.5,29.82,NNW,346,17.4,29.8,78,0.00,CLR,,0.00,WeatherDisplay:10.37,2013-06-12 13:24:00,
2013-06-12 08:29:00,70.7,63.1,29.82,NNW,329,20.8,28.8,77,0.00,CLR,,0.00,WeatherDisplay:10.37,2013-06-12 13:29:00,
2013-06-12 08:34:00,70.9,63.0,29.82,NNW,348,20.1,27.6,76,0.00,CLR,,0.00,WeatherDisplay:10.37,2013-06-12 13:34:00,
2013-06-12 08:39:00,70.8,62.9,29.82,NNW,348,17.8,21.9,76,0.00,CLR,,0.00,WeatherDisplay:10.37,2013-06-12 13:39:00,
2013-06-12 08:44:00,70.9,63.0,29.83,NE,38,13.4,16.1,76,0.00,CLR,,0.00,WeatherDisplay:10.37,2013-06-12 13:44:00,
2013-06-12 08:49:00,71.2,62.9,29.83,NNW,340,15.6,18.4,75,0.00,CLR,,0.00,WeatherDisplay:10.37,2013-06-12 13:49:00,
2013-06-12 08:54:00,71.8,63.4,29.83,North,360,8.7,12.7,75,0.00,CLR,,0.00,WeatherDisplay:10.37,2013-06-12 13:54:00,
2013-06-12 08:59:00,72.4,63.3,29.83,NNE,15,7.6,13.8,73,0.00,CLR,,0.00,WeatherDisplay:10.37,2013-06-12 13:59:00,
2013-06-12 09:04:00,72.9,63.7,29.83,NNW,335,7.8,13.8,73,0.00,CLR,,0.00,WeatherDisplay:10.37,2013-06-12 14:04:00,
2013-06-12 09:09:00,73.1,63.5,29.83,NNW,344,9.3,10.4,72,0.00,CLR,,0.00,WeatherDisplay:10.37,2013-06-12 14:09:00,
2013-06-12 09:14:00,73.6,64.0,29.83,NNW,346,8.3,12.7,72,0.00,CLR,,0.00,WeatherDisplay:10.37,2013-06-12 14:14:00,
2013-06-12 09:19:00,74.3,64.3,29.83,NNW,336,11.7,16.1,71,0.00,CLR,,0.00,WeatherDisplay:10.37,2013-06-12 14:19:00,
2013-06-12 09:24:00,74.5,64.1,29.83,NNW,342,8.3,10.8,70,0.00,CLR,,0.00,WeatherDisplay:10.37,2013-06-12 14:24:00,
2013-06-12 09:29:00,74.8,64.4,29.84,NNW,333,12.8,13.8,70,0.00,CLR,,0.00,WeatherDisplay:10.37,2013-06-12 14:29:00,
2013-06-12 09:34:00,75.1,64.2,29.84,NW,318,12.3,15.0,69,0.00,CLR,,0.00,WeatherDisplay:10.37,2013-06-12 14:34:00,
2013-06-12 09:39:00,75.0,63.7,29.85,North,5,13.2,18.4,68,0.00,CLR,,0.00,WeatherDisplay:10.37,2013-06-12 14:39:00,
2013-06-12 09:44:00,75.0,63.7,29.85,NNE,15,19.3,21.9,68,0.00,CLR,,0.00,WeatherDisplay:10.37,2013-06-12 14:44:00,
2013-06-12 09:49:00,74.8,63.5,29.85,NNW,339,15.6,18.4,68,0.00,CLR,,0.00,WeatherDisplay:10.37,2013-06-12 14:49:00,
2013-06-12 09:54:00,75.0,63.7,29.86,WNW,298,11.7,15.0,68,0.00,CLR,,0.00,WeatherDisplay:10.37,2013-06-12 14:54:00,
2013-06-12 09:59:00,75.2,63.9,29.86,NW,317,16.5,20.7,68,0.00,CLR,,0.00,WeatherDisplay:10.37,2013-06-12 14:59:00,
2013-06-12 10:04:00,75.0,63.7,29.86,WNW,298,15.5,16.1,68,0.00,CLR,,0.00,WeatherDisplay:10.37,2013-06-12 15:04:00,
2013-06-12 10:09:00,75.4,63.7,29.86,NW,319,14.9,16.3,67,0.00,CLR,,0.00,WeatherDisplay:10.37,2013-06-12 15:09:00,
2013-06-12 10:14:00,75.5,63.8,29.86,NNW,337,13.8,15.0,67,0.00,CLR,,0.00,WeatherDisplay:10.37,2013-06-12 15:14:00,
2013-06-12 10:19:00,75.7,64.0,29.86,NNW,335,18.2,18.4,67,0.00,CLR,,0.00,WeatherDisplay:10.37,2013-06-12 15:19:00,
2013-06-12 10:24:00,76.1,63.9,29.86,NNW,333,15.3,18.4,66,0.00,CLR,,0.00,WeatherDisplay:10.37,2013-06-12 15:24:00,
2013-06-12 10:29:00,76.7,64.5,29.86,WNW,297,12.7,16.1,66,0.00,CLR,,0.00,WeatherDisplay:10.37,2013-06-12 15:29:00,
2013-06-12 10:34:00,76.9,63.8,29.86,North,355,16.6,17.6,64,0.00,CLR,,0.00,WeatherDisplay:10.37,2013-06-12 15:34:00,
2013-06-12 10:39:00,77.3,64.6,29.86,WNW,298,13.0,17.6,65,0.00,CLR,,0.00,WeatherDisplay:10.37,2013-06-12 15:39:00,
2013-06-12 10:44:00,77.6,64.0,29.86,NW,324,13.4,16.1,63,0.00,CLR,,0.00,WeatherDisplay:10.37,2013-06-12 15:44:00,
2013-06-12 10:49:00,78.0,63.9,29.87,NW,316,13.2,16.3,62,0.00,CLR,,0.00,WeatherDisplay:10.37,2013-06-12 15:49:00,
2013-06-12 10:54:00,78.5,64.4,29.87,NNW,327,10.9,20.3,62,0.00,CLR,,0.00,WeatherDisplay:10.37,2013-06-12 15:54:00,
2013-06-12 10:59:00,78.8,64.2,29.87,WNW,292,10.5,13.8,61,0.00,CLR,,0.00,WeatherDisplay:10.37,2013-06-12 15:59:00,
2013-06-12 11:04:00,79.4,63.8,29.87,NNW,339,8.1,10.4,59,0.00,CLR,,0.00,WeatherDisplay:10.37,2013-06-12 16:04:00,
2013-06-12 11:09:00,79.7,64.6,29.88,NW,313,9.8,13.5,60,0.00,CLR,,0.00,WeatherDisplay:10.37,2013-06-12 16:09:00,
2013-06-12 11:14:00,80.0,63.9,29.88,WNW,297,14.4,17.3,58,0.00,CLR,,0.00,WeatherDisplay:10.37,2013-06-12 16:14:00,
2013-06-12 11:19:00,80.5,63.9,29.88,NNW,343,14.6,15.0,57,0.00,CLR,,0.00,WeatherDisplay:10.37,2013-06-12 16:19:00,
2013-06-12 11:24:00,80.9,62.7,29.89,NNW,342,16.5,21.9,54,0.00,CLR,,0.00,WeatherDisplay:10.37,2013-06-12 16:24:00,
2013-06-12 11:29:00,80.8,63.1,29.88,NW,325,14.4,18.4,55,0.00,CLR,,0.00,WeatherDisplay:10.37,2013-06-12 16:29:00,
2013-06-12 11:34:00,81.1,63.4,29.89,WNW,300,17.9,20.7,55,0.00,CLR,,0.00,WeatherDisplay:10.37,2013-06-12 16:34:00,
2013-06-12 11:39:00,81.5,62.7,29.89,West,281,18.0,21.9,53,0.00,CLR,,0.00,WeatherDisplay:10.37,2013-06-12 16:39:00,
2013-06-12 11:44:00,81.9,62.0,29.89,North,349,18.3,18.4,51,0.00,CLR,,0.00,WeatherDisplay:10.37,2013-06-12 16:44:00,
2013-06-12 11:49:00,82.1,61.6,29.89,NNW,348,17.7,21.9,50,0.00,CLR,,0.00,WeatherDisplay:10.37,2013-06-12 16:49:00,
2013-06-12 11:54:00,82.3,60.6,29.89,West,269,15.0,23.0,48,0.00,CLR,,0.00,WeatherDisplay:10.37,2013-06-12 16:54:00,
2013-06-12 11:59:00,82.7,60.4,29.89,NNW,340,16.7,16.7,47,0.00,CLR,,0.00,WeatherDisplay:10.37,2013-06-12 16:59:00,
2013-06-12 12:04:00,82.9,61.2,29.90,NNW,328,21.9,24.2,48,0.00,CLR,,0.00,WeatherDisplay:10.37,2013-06-12 17:04:00,
2013-06-12 12:09:00,83.0,61.3,29.90,NNW,338,17.3,27.6,48,0.00,CLR,,0.00,WeatherDisplay:10.37,2013-06-12 17:09:00,
2013-06-12 12:14:00,82.8,61.1,29.90,NW,321,14.6,21.9,48,0.00,CLR,,0.00,WeatherDisplay:10.37,2013-06-12 17:14:00,
2013-06-12 12:19:00,83.0,61.3,29.90,North,5,12.0,20.7,48,0.00,CLR,,0.00,WeatherDisplay:10.37,2013-06-12 17:19:00,
2013-06-12 12:24:00,83.1,61.4,29.91,West,278,18.9,18.9,48,0.00,CLR,,0.00,WeatherDisplay:10.37,2013-06-12 17:24:00,
2013-06-12 12:29:00,83.6,61.8,29.90,NNW,336,13.0,25.3,48,0.00,CLR,,0.00,WeatherDisplay:10.37,2013-06-12 17:29:00,
2013-06-12 12:34:00,83.7,61.3,29.90,NW,312,21.8,25.7,47,0.00,CLR,,0.00,WeatherDisplay:10.37,2013-06-12 17:34:00,
2013-06-12 12:39:00,83.7,58.8,29.90,NNW,346,16.7,20.7,43,0.00,CLR,,0.00,WeatherDisplay:10.37,2013-06-12 17:39:00,
2013-06-12 12:44:00,83.7,56.8,29.90,NNW,329,23.6,31.1,40,0.00,CLR,,0.00,WeatherDisplay:10.37,2013-06-12 17:44:00,
2013-06-12 12:49:00,83.7,58.8,29.90,North,5,19.0,19.0,43,0.00,CLR,,0.00,WeatherDisplay:10.37,2013-06-12 17:49:00,
2013-06-12 12:54:00,83.7,59.5,29.90,NNW,331,13.4,20.7,44,0.00,CLR,,0.00,WeatherDisplay:10.37,2013-06-12 17:54:00,
2013-06-12 12:59:00,83.8,60.8,29.91,NNE,15,17.2,17.2,46,0.00,CLR,,0.00,WeatherDisplay:10.37,2013-06-12 17:59:00,
2013-06-12 13:04:00,84.1,59.8,29.91,NNW,344,19.2,21.9,44,0.00,CLR,,0.00,WeatherDisplay:10.37,2013-06-12 18:04:00,
2013-06-12 13:09:00,84.0,59.7,29.91,NNW,341,14.4,21.9,44,0.00,CLR,,0.00,WeatherDisplay:10.37,2013-06-12 18:09:00,
2013-06-12 13:14:00,84.0,59.1,29.91,NNE,24,20.0,21.9,43,0.00,CLR,,0.00,WeatherDisplay:10.37,2013-06-12 18:14:00,
2013-06-12 13:20:00,84.0,59.7,29.92,WNW,284,14.0,16.1,44,0.00,CLR,,0.00,WeatherDisplay:10.37,2013-06-12 18:20:00,
2013-06-12 13:25:00,83.9,60.9,29.92,North,355,13.7,21.9,46,0.00,CLR,,0.00,WeatherDisplay:10.37,2013-06-12 18:25:00,
2013-06-12 13:30:00,84.0,59.1,29.92,North,355,19.3,21.9,43,0.00,CLR,,0.00,WeatherDisplay:10.37,2013-06-12 18:30:00,
2013-06-12 13:35:00,83.6,60.0,29.92,NNW,346,13.8,23.0,45,0.00,CLR,,0.00,WeatherDisplay:10.37,2013-06-12 18:35:00,
2013-06-12 13:40:00,83.7,60.1,29.92,NNW,341,19.7,23.0,45,0.00,CLR,,0.00,WeatherDisplay:10.37,2013-06-12 18:40:00,
2013-06-12 13:45:00,83.7,60.7,29.92,North,355,15.2,20.7,46,0.00,CLR,,0.00,WeatherDisplay:10.37,2013-06-12 18:45:00,
2013-06-12 13:50:00,83.9,59.7,29.92,NW,310,14.5,18.4,44,0.00,CLR,,0.00,WeatherDisplay:10.37,2013-06-12 18:50:00,
2013-06-12 13:55:00,84.4,60.7,29.92,NNW,336,7.9,10.8,45,0.00,CLR,,0.00,WeatherDisplay:10.37,2013-06-12 18:55:00,
2013-06-12 14:00:00,84.5,60.2,29.92,WNW,290,13.6,17.3,44,0.00,CLR,,0.00,WeatherDisplay:10.37,2013-06-12 19:00:00,
2013-06-12 14:05:00,84.2,61.2,29.92,NNW,329,13.2,17.3,46,0.00,CLR,,0.00,WeatherDisplay:10.37,2013-06-12 19:05:00,
2013-06-12 14:10:00,84.3,59.4,29.92,NW,321,18.5,18.5,43,0.00,CLR,,0.00,WeatherDisplay:10.37,2013-06-12 19:10:00,
2013-06-12 14:15:00,84.0,58.4,29.92,West,261,12.9,18.4,42,0.00,CLR,,0.00,WeatherDisplay:10.37,2013-06-12 19:15:00,
2013-06-12 14:20:00,84.1,59.2,29.93,WNW,302,16.0,27.6,43,0.00,CLR,,0.00,WeatherDisplay:10.37,2013-06-12 19:20:00,
2013-06-12 14:25:00,84.3,60.0,29.92,North,355,14.2,16.1,44,0.00,CLR,,0.00,WeatherDisplay:10.37,2013-06-12 19:25:00,
2013-06-12 14:30:00,84.6,60.3,29.93,NNW,336,20.2,24.2,44,0.00,CLR,,0.00,WeatherDisplay:10.37,2013-06-12 19:30:00,
2013-06-12 14:35:00,84.5,60.2,29.93,WNW,297,13.1,16.1,44,0.00,CLR,,0.00,WeatherDisplay:10.37,2013-06-12 19:35:00,
2013-06-12 14:40:00,84.5,60.2,29.93,NNW,342,15.2,21.9,44,0.00,CLR,,0.00,WeatherDisplay:10.37,2013-06-12 19:40:00,
2013-06-12 14:45:00,84.5,60.8,29.94,NNW,333,15.3,16.1,45,0.00,CLR,,0.00,WeatherDisplay:10.37,2013-06-12 19:45:00,
2013-06-12 14:50:00,84.2,58.6,29.94,NNW,331,19.4,25.3,42,0.00,CLR,,0.00,WeatherDisplay:10.37,2013-06-12 19:50:00,
2013-06-12 14:55:00,84.2,58.6,29.94,North,355,19.7,20.7,42,0.00,CLR,,0.00,WeatherDisplay:10.37,2013-06-12 19:55:00,
2013-06-12 15:00:00,84.1,58.5,29.94,NNW,336,21.4,24.2,42,0.00,CLR,,0.00,WeatherDisplay:10.37,2013-06-12 20:00:00,
2013-06-12 15:05:00,84.2,58.6,29.94,NW,321,17.4,18.4,42,0.00,CLR,,0.00,WeatherDisplay:10.37,2013-06-12 20:05:00,
2013-06-12 15:10:00,84.3,58.7,29.94,WNW,284,9.2,15.0,42,0.00,CLR,,0.00,WeatherDisplay:10.37,2013-06-12 20:10:00,
2013-06-12 15:15:00,84.4,59.5,29.94,North,355,15.5,20.7,43,0.00,CLR,,0.00,WeatherDisplay:10.37,2013-06-12 20:15:00,
2013-06-12 15:20:00,84.3,58.7,29.94,NNW,333,17.1,18.4,42,0.00,CLR,,0.00,WeatherDisplay:10.37,2013-06-12 20:20:00,
2013-06-12 15:25:00,84.2,58.6,29.94,North,349,15.7,16.3,42,0.00,CLR,,0.00,WeatherDisplay:10.37,2013-06-12 20:25:00,
2013-06-12 15:30:00,84.4,59.5,29.94,NW,320,14.1,15.0,43,0.00,CLR,,0.00,WeatherDisplay:10.37,2013-06-12 20:30:00,
2013-06-12 15:35:00,84.5,58.9,29.94,NNW,344,11.6,15.0,42,0.00,CLR,,0.00,WeatherDisplay:10.37,2013-06-12 20:35:00,
2013-06-12 15:40:00,84.5,58.9,29.94,NW,322,14.9,16.1,42,0.00,CLR,,0.00,WeatherDisplay:10.37,2013-06-12 20:40:00,
2013-06-12 15:45:00,84.5,58.9,29.94,NNW,333,14.2,16.1,42,0.00,CLR,,0.00,WeatherDisplay:10.37,2013-06-12 20:45:00,
2013-06-12 15:50:00,84.6,59.6,29.94,NNW,345,8.8,20.7,43,0.00,CLR,,0.00,WeatherDisplay:10.37,2013-06-12 20:50:00,
2013-06-12 15:55:00,84.8,59.2,29.94,NNW,343,15.2,18.4,42,0.00,CLR,,0.00,WeatherDisplay:10.37,2013-06-12 20:55:00,
2013-06-12 16:00:00,84.8,59.8,29.94,North,355,13.4,16.1,43,0.00,CLR,,0.00,WeatherDisplay:10.37,2013-06-12 21:00:00,
2013-06-12 16:05:00,84.4,58.8,29.94,WNW,302,17.9,17.9,42,0.00,CLR,,0.00,WeatherDisplay:10.37,2013-06-12 21:05:00,
2013-06-12 16:10:00,84.5,59.5,29.94,North,355,10.7,10.7,43,0.00,CLR,,0.00,WeatherDisplay:10.37,2013-06-12 21:10:00,
2013-06-12 16:15:00,84.3,58.0,29.94,NNW,340,14.3,21.9,41,0.00,CLR,,0.00,WeatherDisplay:10.37,2013-06-12 21:15:00,
2013-06-12 16:20:00,84.3,58.0,29.95,NNW,339,14.9,17.6,41,0.00,CLR,,0.00,WeatherDisplay:10.37,2013-06-12 21:20:00,
2013-06-12 16:25:00,84.2,58.6,29.95,North,355,16.5,18.4,42,0.00,CLR,,0.00,WeatherDisplay:10.37,2013-06-12 21:25:00,
2013-06-12 16:30:00,83.7,59.5,29.95,North,360,13.8,13.8,44,0.00,CLR,,0.00,WeatherDisplay:10.37,2013-06-12 21:30:00,
2013-06-12 16:35:00,83.5,58.6,29.95,North,351,14.7,23.0,43,0.00,CLR,,0.00,WeatherDisplay:10.37,2013-06-12 21:35:00,
2013-06-12 16:40:00,83.4,57.9,29.94,NNW,338,18.1,20.7,42,0.00,CLR,,0.00,WeatherDisplay:10.37,2013-06-12 21:40:00,
2013-06-12 16:45:00,83.1,58.9,29.94,NNW,328,16.6,16.6,44,0.00,CLR,,0.00,WeatherDisplay:10.37,2013-06-12 21:45:00,
2013-06-12 16:50:00,83.2,59.0,29.95,NW,321,13.2,23.0,44,0.00,CLR,,0.00,WeatherDisplay:10.37,2013-06-12 21:50:00,
2013-06-12 16:55:00,83.0,59.5,29.95,North,355,14.4,14.9,45,0.00,CLR,,0.00,WeatherDisplay:10.37,2013-06-12 21:55:00,
2013-06-12 17:00:00,83.0,59.5,29.95,NNW,346,17.3,21.9,45,0.00,CLR,,0.00,WeatherDisplay:10.37,2013-06-12 22:00:00,
2013-06-12 17:05:00,82.8,59.3,29.95,NNW,344,18.3,21.9,45,0.00,CLR,,0.00,WeatherDisplay:10.37,2013-06-12 22:05:00,
2013-06-12 17:10:00,82.9,58.7,29.95,NW,312,15.6,18.4,44,0.00,CLR,,0.00,WeatherDisplay:10.37,2013-06-12 22:10:00,
2013-06-12 17:15:00,83.1,58.9,29.95,NW,312,15.1,18.4,44,0.00,CLR,,0.00,WeatherDisplay:10.37,2013-06-12 22:15:00,
2013-06-12 17:20:00,83.1,58.9,29.95,NE,43,18.6,18.6,44,0.00,CLR,,0.00,WeatherDisplay:10.37,2013-06-12 22:20:00,
2013-06-12 17:25:00,82.7,58.6,29.95,NNW,335,17.2,17.3,44,0.00,CLR,,0.00,WeatherDisplay:10.37,2013-06-12 22:25:00,
2013-06-12 17:30:00,82.5,59.6,29.96,NW,326,15.1,20.7,46,0.00,CLR,,0.00,WeatherDisplay:10.37,2013-06-12 22:30:00,
2013-06-12 17:35:00,81.8,59.0,29.96,North,351,20.1,20.7,46,0.00,CLR,,0.00,WeatherDisplay:10.37,2013-06-12 22:35:00,
2013-06-12 17:40:00,81.7,58.9,29.96,North,355,14.4,16.1,46,0.00,CLR,,0.00,WeatherDisplay:10.37,2013-06-12 22:40:00,
2013-06-12 17:45:00,81.7,60.7,29.97,NE,34,16.1,21.9,49,0.00,CLR,,0.00,WeatherDisplay:10.37,2013-06-12 22:45:00,
2013-06-12 17:50:00,81.4,59.8,29.97,North,351,18.9,23.0,48,0.00,CLR,,0.00,WeatherDisplay:10.37,2013-06-12 22:50:00,
2013-06-12 17:55:00,81.3,60.9,29.97,NNW,345,13.8,16.1,50,0.00,CLR,,0.00,WeatherDisplay:10.37,2013-06-12 22:55:00,
2013-06-12 18:00:00,80.8,60.4,29.97,NNE,17,14.9,21.9,50,0.00,CLR,,0.00,WeatherDisplay:10.37,2013-06-12 23:00:00,
2013-06-12 18:05:00,80.5,59.0,29.97,NNW,346,15.1,25.3,48,0.00,CLR,,0.00,WeatherDisplay:10.37,2013-06-12 23:05:00,
2013-06-12 18:10:00,80.3,58.8,29.97,NNW,344,18.6,20.7,48,0.00,CLR,,0.00,WeatherDisplay:10.37,2013-06-12 23:10:00,
2013-06-12 18:15:00,79.9,58.5,29.97,NW,326,16.1,24.2,48,0.00,CLR,,0.00,WeatherDisplay:10.37,2013-06-12 23:15:00,
2013-06-12 18:20:00,79.9,58.5,29.98,NNW,342,17.1,18.4,48,0.00,CLR,,0.00,WeatherDisplay:10.37,2013-06-12 23:20:00,
2013-06-12 18:25:00,80.0,59.1,29.97,NW,313,14.6,16.1,49,0.00,CLR,,0.00,WeatherDisplay:10.37,2013-06-12 23:25:00,
2013-06-12 18:30:00,79.6,59.3,29.97,North,350,14.2,20.7,50,0.00,CLR,,0.00,WeatherDisplay:10.37,2013-06-12 23:30:00,
2013-06-12 18:35:00,78.6,58.4,29.98,NW,314,22.3,24.2,50,0.00,CLR,,0.00,WeatherDisplay:10.37,2013-06-12 23:35:00,
2013-06-12 18:40:00,78.3,58.1,29.98,North,5,16.7,20.7,50,0.00,CLR,,0.00,WeatherDisplay:10.37,2013-06-12 23:40:00,
2013-06-12 18:45:00,77.6,58.0,29.98,NNW,347,22.2,22.2,51,0.00,CLR,,0.00,WeatherDisplay:10.37,2013-06-12 23:45:00,
2013-06-12 18:51:00,77.5,57.9,29.99,North,5,13.4,13.4,51,0.00,CLR,,0.00,WeatherDisplay:10.37,2013-06-12 23:51:00,
2013-06-12 18:56:00,77.4,57.9,29.99,NNW,344,17.3,21.9,51,0.00,CLR,,0.00,WeatherDisplay:10.37,2013-06-12 23:56:00,
2013-06-12 19:01:00,77.0,58.0,29.99,North,355,11.6,13.8,52,0.00,CLR,,0.00,WeatherDisplay:10.37,2013-06-13 00:01:00,
2013-06-12 19:06:00,76.8,56.8,29.99,NNW,333,20.6,24.2,50,0.00,CLR,,0.00,WeatherDisplay:10.37,2013-06-13 00:06:00,
2013-06-12 19:11:00,76.6,56.6,29.99,NW,317,12.4,17.3,50,0.00,CLR,,0.00,WeatherDisplay:10.37,2013-06-13 00:11:00,
2013-06-12 19:16:00,76.4,56.9,29.99,NNW,346,19.4,21.9,51,0.00,CLR,,0.00,WeatherDisplay:10.37,2013-06-13 00:16:00,
2013-06-12 19:21:00,75.9,57.0,30.00,NNW,348,18.3,21.9,52,0.00,CLR,,0.00,WeatherDisplay:10.37,2013-06-13 00:21:00,
2013-06-12 19:26:00,75.3,57.0,30.00,North,355,16.7,17.3,53,0.00,CLR,,0.00,WeatherDisplay:10.37,2013-06-13 00:26:00,
2013-06-12 19:31:00,74.8,56.5,30.01,North,355,21.4,23.0,53,0.00,CLR,,0.00,WeatherDisplay:10.37,2013-06-13 00:31:00,
2013-06-12 19:36:00,74.3,56.1,30.01,NE,50,14.8,17.3,53,0.00,CLR,,0.00,WeatherDisplay:10.37,2013-06-13 00:36:00,
2013-06-12 19:41:00,73.8,56.1,30.01,NNE,22,12.4,16.3,54,0.00,CLR,,0.00,WeatherDisplay:10.37,2013-06-13 00:41:00,
2013-06-12 19:46:00,73.1,55.5,30.01,NNE,13,19.1,24.2,54,0.00,CLR,,0.00,WeatherDisplay:10.37,2013-06-13 00:46:00,
2013-06-12 19:51:00,72.5,55.4,30.01,North,5,21.5,21.9,55,0.00,CLR,,0.00,WeatherDisplay:10.37,2013-06-13 00:51:00,
2013-06-12 19:56:00,72.0,55.4,30.01,NW,319,15.6,21.9,56,0.00,CLR,,0.00,WeatherDisplay:10.37,2013-06-13 00:56:00,
2013-06-12 20:01:00,71.7,55.2,30.01,NNW,337,12.2,20.7,56,0.00,CLR,,0.00,WeatherDisplay:10.37,2013-06-13 01:01:00,
2013-06-12 20:06:00,71.4,54.4,30.01,NNW,340,18.1,23.0,55,0.00,CLR,,0.00,WeatherDisplay:10.37,2013-06-13 01:06:00,
2013-06-12 20:11:00,71.2,54.2,30.01,North,9,12.0,15.0,55,0.00,CLR,,0.00,WeatherDisplay:10.37,2013-06-13 01:11:00,
2013-06-12 20:16:00,71.2,54.2,30.01,North,355,10.0,12.7,55,0.00,CLR,,0.00,WeatherDisplay:10.37,2013-06-13 01:16:00,
2013-06-12 20:21:00,71.1,54.1,30.02,North,355,13.8,21.7,55,0.00,CLR,,0.00,WeatherDisplay:10.37,2013-06-13 01:21:00,
2013-06-12 20:26:00,70.7,54.2,30.03,North,360,8.6,15.0,56,0.00,CLR,,0.00,WeatherDisplay:10.37,2013-06-13 01:26:00,
2013-06-12 20:31:00,70.4,54.4,30.03,NNE,13,7.1,12.7,57,0.00,CLR,,0.00,WeatherDisplay:10.37,2013-06-13 01:31:00,
2013-06-12 20:36:00,70.2,54.2,30.04,NNW,348,14.3,16.1,57,0.00,CLR,,0.00,WeatherDisplay:10.37,2013-06-13 01:36:00,
2013-06-12 20:41:00,70.0,54.1,30.04,North,360,10.9,12.2,57,0.00,CLR,,0.00,WeatherDisplay:10.37,2013-06-13 01:41:00,
2013-06-12 20:46:00,69.8,53.9,30.05,NNW,345,13.1,17.3,57,0.00,CLR,,0.00,WeatherDisplay:10.37,2013-06-13 01:46:00,
2013-06-12 20:51:00,69.5,53.6,30.04,North,351,12.7,12.7,57,0.00,CLR,,0.00,WeatherDisplay:10.37,2013-06-13 01:51:00,
2013-06-12 20:56:00,69.2,53.3,30.04,North,351,8.1,10.4,57,0.00,CLR,,0.00,WeatherDisplay:10.37,2013-06-13 01:56:00,
2013-06-12 21:01:00,68.9,53.5,30.04,North,9,13.7,16.1,58,0.00,CLR,,0.00,WeatherDisplay:10.37,2013-06-13 02:01:00,
2013-06-12 21:06:00,68.6,53.2,30.04,NNW,343,14.1,14.1,58,0.00,CLR,,0.00,WeatherDisplay:10.37,2013-06-13 02:06:00,
2013-06-12 21:11:00,68.6,53.2,30.04,NNW,347,10.2,13.5,58,0.00,CLR,,0.00,WeatherDisplay:10.37,2013-06-13 02:11:00,
2013-06-12 21:16:00,68.4,53.0,30.05,North,9,16.4,18.4,58,0.00,CLR,,0.00,WeatherDisplay:10.37,2013-06-13 02:16:00,
2013-06-12 21:21:00,68.3,52.9,30.05,North,350,9.6,13.8,58,0.00,CLR,,0.00,WeatherDisplay:10.37,2013-06-13 02:21:00,
2013-06-12 21:26:00,68.1,52.8,30.05,NNW,343,13.7,17.3,58,0.00,CLR,,0.00,WeatherDisplay:10.37,2013-06-13 02:26:00,
2013-06-12 21:31:00,67.9,52.6,30.06,North,10,11.9,16.1,58,0.00,CLR,,0.00,WeatherDisplay:10.37,2013-06-13 02:31:00,
2013-06-12 21:36:00,67.7,52.9,30.06,North,355,9.7,12.7,59,0.00,CLR,,0.00,WeatherDisplay:10.37,2013-06-13 02:36:00,
2013-06-12 21:41:00,67.5,52.7,30.06,North,355,9.6,9.6,59,0.00,CLR,,0.00,WeatherDisplay:10.37,2013-06-13 02:41:00,
2013-06-12 21:46:00,67.2,52.8,30.07,North,5,6.0,10.4,60,0.00,CLR,,0.00,WeatherDisplay:10.37,2013-06-13 02:46:00,
2013-06-12 21:51:00,66.9,52.6,30.07,NNW,332,9.1,10.8,60,0.00,CLR,,0.00,WeatherDisplay:10.37,2013-06-13 02:51:00,
2013-06-12 21:56:00,66.7,52.8,30.07,North,5,7.5,9.2,61,0.00,CLR,,0.00,WeatherDisplay:10.37,2013-06-13 02:56:00,
2013-06-12 22:01:00,66.7,52.8,30.07,North,5,6.8,10.4,61,0.00,CLR,,0.00,WeatherDisplay:10.37,2013-06-13 03:01:00,
2013-06-12 22:06:00,66.6,52.7,30.07,NNW,346,9.3,9.3,61,0.00,CLR,,0.00,WeatherDisplay:10.37,2013-06-13 03:06:00,
2013-06-12 22:11:00,66.4,52.5,30.09,NNW,341,9.1,10.4,61,0.00,CLR,,0.00,WeatherDisplay:10.37,2013-06-13 03:11:00,
2013-06-12 22:16:00,66.3,52.4,30.09,NNE,14,10.2,12.7,61,0.00,CLR,,0.00,WeatherDisplay:10.37,2013-06-13 03:16:00,
2013-06-12 22:21:00,66.0,52.6,30.09,NNW,342,7.2,9.2,62,0.00,CLR,,0.00,WeatherDisplay:10.37,2013-06-13 03:21:00,
2013-06-12 22:26:00,65.7,52.3,30.10,North,5,9.7,9.7,62,0.00,CLR,,0.00,WeatherDisplay:10.37,2013-06-13 03:26:00,
2013-06-12 22:31:00,65.3,52.4,30.10,North,360,7.9,13.8,63,0.00,CLR,,0.00,WeatherDisplay:10.37,2013-06-13 03:31:00,
2013-06-12 22:36:00,65.0,52.5,30.10,North,350,8.0,8.1,64,0.00,CLR,,0.00,WeatherDisplay:10.37,2013-06-13 03:36:00,
2013-06-12 22:41:00,64.6,52.6,30.10,North,355,8.2,13.8,65,0.00,CLR,,0.00,WeatherDisplay:10.37,2013-06-13 03:41:00,
2013-06-12 22:46:00,64.3,52.7,30.10,North,355,6.2,9.2,66,0.00,CLR,,0.00,WeatherDisplay:10.37,2013-06-13 03:46:00,
2013-06-12 22:51:00,64.1,52.5,30.11,North,355,9.3,9.3,66,0.00,CLR,,0.00,WeatherDisplay:10.37,2013-06-13 03:51:00,
2013-06-12 22:56:00,64.0,52.4,30.11,North,355,5.7,10.4,66,0.00,CLR,,0.00,WeatherDisplay:10.37,2013-06-13 03:56:00,
2013-06-12 23:01:00,63.9,52.7,30.11,North,355,5.5,8.1,67,0.00,CLR,,0.00,WeatherDisplay:10.37,2013-06-13 04:01:00,
2013-06-12 23:02:00,63.8,52.6,30.11,North,355,7.4,8.1,67,0.00,CLR,,0.00,WeatherDisplay:10.37,2013-06-13 04:02:00,
2013-06-12 23:07:00,63.6,52.4,30.11,North,355,3.3,4.6,67,0.00,CLR,,0.00,WeatherDisplay:10.37,2013-06-13 04:07:00,
2013-06-12 23:12:00,63.4,52.7,30.11,North,355,7.2,7.2,68,0.00,CLR,,0.00,WeatherDisplay:10.37,2013-06-13 04:12:00,
2013-06-12 23:17:00,63.0,52.7,30.11,North,355,3.8,6.9,69,0.00,CLR,,0.00,WeatherDisplay:10.37,2013-06-13 04:17:00,
2013-06-12 23:22:00,63.0,52.7,30.11,NNE,17,3.6,5.8,69,0.00,CLR,,0.00,WeatherDisplay:10.37,2013-06-13 04:22:00,
2013-06-12 23:27:00,63.0,52.7,30.11,NNE,17,4.7,9.5,69,0.00,CLR,,0.00,WeatherDisplay:10.37,2013-06-13 04:27:00,
2013-06-12 23:32:00,63.0,52.7,30.12,NNE,14,3.5,6.9,69,0.00,CLR,,0.00,WeatherDisplay:10.37,2013-06-13 04:32:00,
2013-06-12 23:37:00,62.8,52.5,30.12,NNE,17,5.9,8.1,69,0.00,CLR,,0.00,WeatherDisplay:10.37,2013-06-13 04:37:00,
2013-06-12 23:42:00,62.7,52.4,30.12,NNE,17,3.4,6.9,69,0.00,CLR,,0.00,WeatherDisplay:10.37,2013-06-13 04:42:00,
2013-06-12 23:47:00,62.6,52.7,30.12,NNW,348,7.7,10.4,70,0.00,CLR,,0.00,WeatherDisplay:10.37,2013-06-13 04:47:00,
2013-06-12 23:52:00,62.5,52.6,30.12,NNE,26,5.5,6.9,70,0.00,CLR,,0.00,WeatherDisplay:10.37,2013-06-13 04:52:00,
2013-06-12 23:57:00,62.3,52.8,30.12,North,9,7.6,12.7,71,0.00,CLR,,0.00,WeatherDisplay:10.37,2013-06-13 04:57:00,